sensor_id;sensor_type;location;lat;lon;timestamp;temperature;humidity
15564;DHT22;7883;52.554;13.364;2023-04-06T00:01:16;6.90;99.90
15564;DHT22;7883;52.554;13.364;2023-04-06T00:03:43;6.90;99.90
15564;DHT22;7883;52.554;13.364;2023-04-06T00:06:10;6.90;99.90
15564;DHT22;7883;52.554;13.364;2023-04-06T00:08:37;6.90;99.90
15564;DHT22;7883;52.554;13.364;2023-04-06T00:11:06;6.90;99.90
15564;DHT22;7883;52.554;13.364;2023-04-06T00:13:33;6.90;99.90
15564;DHT22;7883;52.554;13.364;2023-04-06T00:16:00;6.90;99.90
15564;DHT22;7883;52.554;13.364;2023-04-06T00:18:27;6.70;99.90
15564;DHT22;7883;52.554;13.364;2023-04-06T00:20:54;6.60;99.90
15564;DHT22;7883;52.554;13.364;2023-04-06T00:23:21;6.60;99.90
15564;DHT22;7883;52.554;13.364;2023-04-06T00:25:48;6.70;99.90
15564;DHT22;7883;52.554;13.364;2023-04-06T00:28:16;6.60;99.90
15564;DHT22;7883;52.554;13.364;2023-04-06T00:30:47;6.70;99.90
15564;DHT22;7883;52.554;13.364;2023-04-06T00:33:16;6.70;99.90
15564;DHT22;7883;52.554;13.364;2023-04-06T00:35:43;6.70;99.90
15564;DHT22;7883;52.554;13.364;2023-04-06T00:38:11;6.70;99.90
15564;DHT22;7883;52.554;13.364;2023-04-06T00:40:38;6.70;99.90
15564;DHT22;7883;52.554;13.364;2023-04-06T00:43:06;6.70;99.90
15564;DHT22;7883;52.554;13.364;2023-04-06T00:45:34;6.70;99.90
15564;DHT22;7883;52.554;13.364;2023-04-06T00:48:02;6.80;99.90
15564;DHT22;7883;52.554;13.364;2023-04-06T00:50:29;6.80;99.90
15564;DHT22;7883;52.554;13.364;2023-04-06T00:52:56;6.80;99.90
15564;DHT22;7883;52.554;13.364;2023-04-06T00:55:23;6.70;99.90
15564;DHT22;7883;52.554;13.364;2023-04-06T00:57:53;6.60;99.90
15564;DHT22;7883;52.554;13.364;2023-04-06T01:00:20;6.60;99.90
15564;DHT22;7883;52.554;13.364;2023-04-06T01:02:48;6.50;99.90
15564;DHT22;7883;52.554;13.364;2023-04-06T01:05:15;6.40;99.90
15564;DHT22;7883;52.554;13.364;2023-04-06T01:07:43;6.40;99.90
15564;DHT22;7883;52.554;13.364;2023-04-06T01:10:10;6.40;99.90
15564;DHT22;7883;52.554;13.364;2023-04-06T01:12:37;6.40;99.90
15564;DHT22;7883;52.554;13.364;2023-04-06T01:15:05;6.50;99.90
15564;DHT22;7883;52.554;13.364;2023-04-06T01:17:33;6.40;99.90
15564;DHT22;7883;52.554;13.364;2023-04-06T01:20:02;6.40;99.90
15564;DHT22;7883;52.554;13.364;2023-04-06T01:22:30;6.40;99.90
15564;DHT22;7883;52.554;13.364;2023-04-06T01:24:59;6.50;99.90
15564;DHT22;7883;52.554;13.364;2023-04-06T01:27:28;6.50;99.90
15564;DHT22;7883;52.554;13.364;2023-04-06T01:29:55;6.40;99.90
15564;DHT22;7883;52.554;13.364;2023-04-06T01:32:22;6.50;99.90
15564;DHT22;7883;52.554;13.364;2023-04-06T01:34:51;6.50;99.90
15564;DHT22;7883;52.554;13.364;2023-04-06T01:37:18;6.40;99.90
15564;DHT22;7883;52.554;13.364;2023-04-06T01:39:46;6.40;99.90
15564;DHT22;7883;52.554;13.364;2023-04-06T01:42:14;6.40;99.90
15564;DHT22;7883;52.554;13.364;2023-04-06T01:44:41;6.40;99.90
15564;DHT22;7883;52.554;13.364;2023-04-06T01:47:08;6.30;99.90
15564;DHT22;7883;52.554;13.364;2023-04-06T01:49:35;6.40;99.90
15564;DHT22;7883;52.554;13.364;2023-04-06T01:52:02;6.40;99.90
15564;DHT22;7883;52.554;13.364;2023-04-06T01:54:29;6.40;99.90
15564;DHT22;7883;52.554;13.364;2023-04-06T01:56:58;6.40;99.90
15564;DHT22;7883;52.554;13.364;2023-04-06T01:59:25;6.40;99.90
15564;DHT22;7883;52.554;13.364;2023-04-06T02:01:52;6.40;99.90
15564;DHT22;7883;52.554;13.364;2023-04-06T02:04:19;6.40;99.90
15564;DHT22;7883;52.554;13.364;2023-04-06T02:06:46;6.40;99.90
15564;DHT22;7883;52.554;13.364;2023-04-06T02:09:14;6.50;99.90
15564;DHT22;7883;52.554;13.364;2023-04-06T02:11:41;6.50;99.90
15564;DHT22;7883;52.554;13.364;2023-04-06T02:14:09;6.50;99.90
15564;DHT22;7883;52.554;13.364;2023-04-06T02:16:36;6.40;99.90
15564;DHT22;7883;52.554;13.364;2023-04-06T02:19:03;6.50;99.90
15564;DHT22;7883;52.554;13.364;2023-04-06T02:21:30;6.40;99.90
15564;DHT22;7883;52.554;13.364;2023-04-06T02:23:57;6.50;99.90
15564;DHT22;7883;52.554;13.364;2023-04-06T02:26:25;6.50;99.90
15564;DHT22;7883;52.554;13.364;2023-04-06T02:28:52;6.40;99.90
15564;DHT22;7883;52.554;13.364;2023-04-06T02:31:20;6.40;99.90
15564;DHT22;7883;52.554;13.364;2023-04-06T02:33:47;6.40;99.90
15564;DHT22;7883;52.554;13.364;2023-04-06T02:36:14;6.40;99.90
15564;DHT22;7883;52.554;13.364;2023-04-06T02:38:41;6.40;99.90
15564;DHT22;7883;52.554;13.364;2023-04-06T02:41:09;6.30;99.90
15564;DHT22;7883;52.554;13.364;2023-04-06T02:43:36;6.30;99.90
15564;DHT22;7883;52.554;13.364;2023-04-06T02:46:03;6.30;99.90
15564;DHT22;7883;52.554;13.364;2023-04-06T02:48:32;6.30;99.90
15564;DHT22;7883;52.554;13.364;2023-04-06T02:51:01;6.20;99.90
15564;DHT22;7883;52.554;13.364;2023-04-06T02:53:28;6.20;99.90
15564;DHT22;7883;52.554;13.364;2023-04-06T02:55:55;6.20;99.90
15564;DHT22;7883;52.554;13.364;2023-04-06T02:58:23;6.00;99.90
15564;DHT22;7883;52.554;13.364;2023-04-06T03:00:50;6.00;99.90
15564;DHT22;7883;52.554;13.364;2023-04-06T03:03:17;6.10;99.90
15564;DHT22;7883;52.554;13.364;2023-04-06T03:05:45;6.10;99.90
15564;DHT22;7883;52.554;13.364;2023-04-06T03:08:13;6.00;99.90
15564;DHT22;7883;52.554;13.364;2023-04-06T03:10:40;6.00;99.90
15564;DHT22;7883;52.554;13.364;2023-04-06T03:13:07;6.00;99.90
15564;DHT22;7883;52.554;13.364;2023-04-06T03:15:34;6.00;99.90
15564;DHT22;7883;52.554;13.364;2023-04-06T03:18:01;6.00;99.90
15564;DHT22;7883;52.554;13.364;2023-04-06T03:20:29;6.00;99.90
15564;DHT22;7883;52.554;13.364;2023-04-06T03:22:59;6.00;99.90
15564;DHT22;7883;52.554;13.364;2023-04-06T03:25:26;5.90;99.90
15564;DHT22;7883;52.554;13.364;2023-04-06T03:27:53;5.90;99.90
15564;DHT22;7883;52.554;13.364;2023-04-06T03:30:20;5.90;99.90
15564;DHT22;7883;52.554;13.364;2023-04-06T03:32:47;5.90;99.90
15564;DHT22;7883;52.554;13.364;2023-04-06T03:35:14;5.90;99.90
15564;DHT22;7883;52.554;13.364;2023-04-06T03:37:42;5.80;99.90
15564;DHT22;7883;52.554;13.364;2023-04-06T03:40:11;5.80;99.90
15564;DHT22;7883;52.554;13.364;2023-04-06T03:42:38;5.80;99.90
15564;DHT22;7883;52.554;13.364;2023-04-06T03:45:05;5.70;99.90
15564;DHT22;7883;52.554;13.364;2023-04-06T03:47:33;5.70;99.90
15564;DHT22;7883;52.554;13.364;2023-04-06T03:50:00;5.70;99.90
15564;DHT22;7883;52.554;13.364;2023-04-06T03:52:28;5.70;99.90
15564;DHT22;7883;52.554;13.364;2023-04-06T03:54:55;5.70;99.90
15564;DHT22;7883;52.554;13.364;2023-04-06T03:57:23;5.70;99.90
15564;DHT22;7883;52.554;13.364;2023-04-06T03:59:53;5.60;99.90
15564;DHT22;7883;52.554;13.364;2023-04-06T04:02:20;5.70;99.90
15564;DHT22;7883;52.554;13.364;2023-04-06T04:04:47;5.60;99.90
15564;DHT22;7883;52.554;13.364;2023-04-06T04:07:14;5.60;99.90
15564;DHT22;7883;52.554;13.364;2023-04-06T04:09:42;5.50;99.90
15564;DHT22;7883;52.554;13.364;2023-04-06T04:12:09;5.50;99.90
15564;DHT22;7883;52.554;13.364;2023-04-06T04:14:38;5.50;99.90
15564;DHT22;7883;52.554;13.364;2023-04-06T04:17:07;5.50;99.90
15564;DHT22;7883;52.554;13.364;2023-04-06T04:19:34;5.50;99.90
15564;DHT22;7883;52.554;13.364;2023-04-06T04:22:01;5.50;99.90
15564;DHT22;7883;52.554;13.364;2023-04-06T04:24:30;5.50;99.90
15564;DHT22;7883;52.554;13.364;2023-04-06T04:26:57;5.50;99.90
15564;DHT22;7883;52.554;13.364;2023-04-06T04:29:24;5.50;99.90
15564;DHT22;7883;52.554;13.364;2023-04-06T04:31:53;5.40;99.90
15564;DHT22;7883;52.554;13.364;2023-04-06T04:34:22;5.40;99.90
15564;DHT22;7883;52.554;13.364;2023-04-06T04:36:51;5.40;99.90
15564;DHT22;7883;52.554;13.364;2023-04-06T04:39:18;5.40;99.90
15564;DHT22;7883;52.554;13.364;2023-04-06T04:41:45;5.50;99.90
15564;DHT22;7883;52.554;13.364;2023-04-06T04:44:12;5.50;99.90
15564;DHT22;7883;52.554;13.364;2023-04-06T04:46:40;5.50;99.90
15564;DHT22;7883;52.554;13.364;2023-04-06T04:49:09;5.40;99.90
15564;DHT22;7883;52.554;13.364;2023-04-06T04:51:36;5.40;99.90
15564;DHT22;7883;52.554;13.364;2023-04-06T04:54:03;5.40;99.90
15564;DHT22;7883;52.554;13.364;2023-04-06T04:56:31;5.30;99.90
15564;DHT22;7883;52.554;13.364;2023-04-06T04:58:58;5.40;99.90
15564;DHT22;7883;52.554;13.364;2023-04-06T05:01:25;5.30;99.90
15564;DHT22;7883;52.554;13.364;2023-04-06T05:03:52;5.60;99.90
15564;DHT22;7883;52.554;13.364;2023-04-06T05:06:21;6.80;99.90
15564;DHT22;7883;52.554;13.364;2023-04-06T05:08:48;8.30;99.90
15564;DHT22;7883;52.554;13.364;2023-04-06T05:11:15;9.30;99.90
15564;DHT22;7883;52.554;13.364;2023-04-06T05:13:42;9.70;99.90
15564;DHT22;7883;52.554;13.364;2023-04-06T05:16:09;9.70;99.90
15564;DHT22;7883;52.554;13.364;2023-04-06T05:18:40;10.00;99.90
15564;DHT22;7883;52.554;13.364;2023-04-06T05:21:08;9.50;99.90
15564;DHT22;7883;52.554;13.364;2023-04-06T05:23:39;8.30;99.90
15564;DHT22;7883;52.554;13.364;2023-04-06T05:26:06;7.50;99.90
15564;DHT22;7883;52.554;13.364;2023-04-06T05:28:33;7.00;99.90
15564;DHT22;7883;52.554;13.364;2023-04-06T05:31:00;6.80;99.90
15564;DHT22;7883;52.554;13.364;2023-04-06T05:33:28;6.60;99.90
15564;DHT22;7883;52.554;13.364;2023-04-06T05:35:55;6.50;99.90
15564;DHT22;7883;52.554;13.364;2023-04-06T05:38:22;6.40;99.90
15564;DHT22;7883;52.554;13.364;2023-04-06T05:40:52;6.30;99.90
15564;DHT22;7883;52.554;13.364;2023-04-06T05:43:19;6.20;99.90
15564;DHT22;7883;52.554;13.364;2023-04-06T05:45:46;6.20;99.90
15564;DHT22;7883;52.554;13.364;2023-04-06T05:48:13;6.20;99.90
15564;DHT22;7883;52.554;13.364;2023-04-06T05:50:41;6.10;99.90
15564;DHT22;7883;52.554;13.364;2023-04-06T05:53:08;6.10;99.90
15564;DHT22;7883;52.554;13.364;2023-04-06T05:55:35;6.00;99.90
15564;DHT22;7883;52.554;13.364;2023-04-06T05:58:03;6.00;99.90
15564;DHT22;7883;52.554;13.364;2023-04-06T06:00:30;6.00;99.90
15564;DHT22;7883;52.554;13.364;2023-04-06T06:02:58;6.00;99.90
15564;DHT22;7883;52.554;13.364;2023-04-06T06:05:25;6.10;99.90
15564;DHT22;7883;52.554;13.364;2023-04-06T06:07:52;6.00;99.90
15564;DHT22;7883;52.554;13.364;2023-04-06T06:10:20;6.10;99.90
15564;DHT22;7883;52.554;13.364;2023-04-06T06:12:49;6.20;99.90
15564;DHT22;7883;52.554;13.364;2023-04-06T06:15:18;6.20;99.90
15564;DHT22;7883;52.554;13.364;2023-04-06T06:17:45;6.20;99.90
15564;DHT22;7883;52.554;13.364;2023-04-06T06:20:13;6.20;99.90
15564;DHT22;7883;52.554;13.364;2023-04-06T06:22:40;6.20;99.90
15564;DHT22;7883;52.554;13.364;2023-04-06T06:25:07;6.30;99.90
15564;DHT22;7883;52.554;13.364;2023-04-06T06:27:34;6.20;99.90
15564;DHT22;7883;52.554;13.364;2023-04-06T06:30:02;6.30;99.90
15564;DHT22;7883;52.554;13.364;2023-04-06T06:32:31;6.30;99.90
15564;DHT22;7883;52.554;13.364;2023-04-06T06:35:00;6.30;99.90
15564;DHT22;7883;52.554;13.364;2023-04-06T06:37:28;6.40;99.90
15564;DHT22;7883;52.554;13.364;2023-04-06T06:39:55;6.30;99.90
15564;DHT22;7883;52.554;13.364;2023-04-06T06:42:22;6.40;99.90
15564;DHT22;7883;52.554;13.364;2023-04-06T06:44:49;6.40;99.90
15564;DHT22;7883;52.554;13.364;2023-04-06T06:47:16;6.50;99.90
15564;DHT22;7883;52.554;13.364;2023-04-06T06:49:45;6.60;99.90
15564;DHT22;7883;52.554;13.364;2023-04-06T06:52:12;6.70;99.90
15564;DHT22;7883;52.554;13.364;2023-04-06T06:54:39;6.70;99.90
15564;DHT22;7883;52.554;13.364;2023-04-06T06:57:06;6.70;99.90
15564;DHT22;7883;52.554;13.364;2023-04-06T06:59:33;6.80;99.90
15564;DHT22;7883;52.554;13.364;2023-04-06T07:02:00;6.80;99.90
15564;DHT22;7883;52.554;13.364;2023-04-06T07:04:27;6.90;99.90
15564;DHT22;7883;52.554;13.364;2023-04-06T07:06:56;6.80;99.90
15564;DHT22;7883;52.554;13.364;2023-04-06T07:09:25;6.80;99.90
15564;DHT22;7883;52.554;13.364;2023-04-06T07:11:54;6.80;99.90
15564;DHT22;7883;52.554;13.364;2023-04-06T07:14:22;6.90;99.90
15564;DHT22;7883;52.554;13.364;2023-04-06T07:16:49;7.00;99.90
15564;DHT22;7883;52.554;13.364;2023-04-06T07:19:16;7.10;99.90
15564;DHT22;7883;52.554;13.364;2023-04-06T07:21:44;7.20;99.90
15564;DHT22;7883;52.554;13.364;2023-04-06T07:24:13;7.30;99.90
15564;DHT22;7883;52.554;13.364;2023-04-06T07:26:41;7.20;99.90
15564;DHT22;7883;52.554;13.364;2023-04-06T07:29:08;7.30;99.90
15564;DHT22;7883;52.554;13.364;2023-04-06T07:31:35;7.40;99.90
15564;DHT22;7883;52.554;13.364;2023-04-06T07:34:05;7.40;99.90
15564;DHT22;7883;52.554;13.364;2023-04-06T07:36:32;7.40;99.90
15564;DHT22;7883;52.554;13.364;2023-04-06T07:38:59;7.50;99.90
15564;DHT22;7883;52.554;13.364;2023-04-06T07:41:29;7.50;99.90
15564;DHT22;7883;52.554;13.364;2023-04-06T07:43:56;7.50;99.90
15564;DHT22;7883;52.554;13.364;2023-04-06T07:46:24;7.60;99.90
15564;DHT22;7883;52.554;13.364;2023-04-06T07:48:51;7.60;99.90
15564;DHT22;7883;52.554;13.364;2023-04-06T07:51:18;7.50;99.90
15564;DHT22;7883;52.554;13.364;2023-04-06T07:53:45;7.60;99.90
15564;DHT22;7883;52.554;13.364;2023-04-06T07:56:12;7.60;99.90
15564;DHT22;7883;52.554;13.364;2023-04-06T07:58:42;7.60;99.90
15564;DHT22;7883;52.554;13.364;2023-04-06T08:01:09;7.70;99.90
15564;DHT22;7883;52.554;13.364;2023-04-06T08:03:36;7.80;99.90
15564;DHT22;7883;52.554;13.364;2023-04-06T08:06:04;7.90;99.90
15564;DHT22;7883;52.554;13.364;2023-04-06T08:08:32;7.90;99.90
15564;DHT22;7883;52.554;13.364;2023-04-06T08:10:59;8.00;99.90
15564;DHT22;7883;52.554;13.364;2023-04-06T08:13:28;8.10;99.90
15564;DHT22;7883;52.554;13.364;2023-04-06T08:15:56;8.10;99.90
15564;DHT22;7883;52.554;13.364;2023-04-06T08:18:24;8.20;99.90
15564;DHT22;7883;52.554;13.364;2023-04-06T08:20:51;8.20;99.90
15564;DHT22;7883;52.554;13.364;2023-04-06T08:23:18;8.30;99.90
15564;DHT22;7883;52.554;13.364;2023-04-06T08:25:45;8.30;99.90
15564;DHT22;7883;52.554;13.364;2023-04-06T08:28:13;8.30;99.90
15564;DHT22;7883;52.554;13.364;2023-04-06T08:30:40;8.30;99.90
15564;DHT22;7883;52.554;13.364;2023-04-06T08:33:08;8.40;99.90
15564;DHT22;7883;52.554;13.364;2023-04-06T08:35:36;8.60;99.90
15564;DHT22;7883;52.554;13.364;2023-04-06T08:38:03;8.60;99.90
15564;DHT22;7883;52.554;13.364;2023-04-06T08:40:36;8.60;99.90
15564;DHT22;7883;52.554;13.364;2023-04-06T08:43:06;8.60;99.90
15564;DHT22;7883;52.554;13.364;2023-04-06T08:45:38;8.60;99.90
15564;DHT22;7883;52.554;13.364;2023-04-06T08:48:05;8.60;99.90
15564;DHT22;7883;52.554;13.364;2023-04-06T08:50:35;8.70;99.90
15564;DHT22;7883;52.554;13.364;2023-04-06T08:53:02;8.90;99.90
15564;DHT22;7883;52.554;13.364;2023-04-06T08:55:29;8.90;99.90
15564;DHT22;7883;52.554;13.364;2023-04-06T08:57:59;9.00;99.90
15564;DHT22;7883;52.554;13.364;2023-04-06T09:00:31;9.00;99.90
15564;DHT22;7883;52.554;13.364;2023-04-06T09:02:58;9.10;99.90
15564;DHT22;7883;52.554;13.364;2023-04-06T09:05:26;9.20;99.90
15564;DHT22;7883;52.554;13.364;2023-04-06T09:07:55;9.20;99.90
15564;DHT22;7883;52.554;13.364;2023-04-06T09:10:22;9.30;99.90
15564;DHT22;7883;52.554;13.364;2023-04-06T09:12:51;9.40;99.90
15564;DHT22;7883;52.554;13.364;2023-04-06T09:15:20;9.50;99.90
15564;DHT22;7883;52.554;13.364;2023-04-06T09:17:50;9.50;99.90
15564;DHT22;7883;52.554;13.364;2023-04-06T09:20:23;9.40;99.90
15564;DHT22;7883;52.554;13.364;2023-04-06T09:22:51;9.40;99.90
15564;DHT22;7883;52.554;13.364;2023-04-06T09:25:21;9.40;99.90
15564;DHT22;7883;52.554;13.364;2023-04-06T09:27:49;9.50;99.90
15564;DHT22;7883;52.554;13.364;2023-04-06T09:30:25;9.50;99.90
15564;DHT22;7883;52.554;13.364;2023-04-06T09:32:56;9.60;99.90
15564;DHT22;7883;52.554;13.364;2023-04-06T09:35:24;9.60;99.90
15564;DHT22;7883;52.554;13.364;2023-04-06T09:37:56;9.70;99.90
15564;DHT22;7883;52.554;13.364;2023-04-06T09:40:29;9.70;99.90
15564;DHT22;7883;52.554;13.364;2023-04-06T09:42:56;9.80;99.90
15564;DHT22;7883;52.554;13.364;2023-04-06T09:45:26;9.70;99.90
15564;DHT22;7883;52.554;13.364;2023-04-06T09:47:54;9.90;99.90
15564;DHT22;7883;52.554;13.364;2023-04-06T09:50:22;9.90;99.90
15564;DHT22;7883;52.554;13.364;2023-04-06T09:52:51;10.00;99.90
15564;DHT22;7883;52.554;13.364;2023-04-06T09:55:26;10.10;99.90
15564;DHT22;7883;52.554;13.364;2023-04-06T09:58:00;10.20;99.90
15564;DHT22;7883;52.554;13.364;2023-04-06T10:00:32;10.20;99.90
15564;DHT22;7883;52.554;13.364;2023-04-06T10:03:10;10.10;99.90
15564;DHT22;7883;52.554;13.364;2023-04-06T10:05:43;10.10;99.90
15564;DHT22;7883;52.554;13.364;2023-04-06T10:08:13;10.00;99.90
15564;DHT22;7883;52.554;13.364;2023-04-06T10:10:41;9.90;99.90
15564;DHT22;7883;52.554;13.364;2023-04-06T10:13:11;10.10;99.90
15564;DHT22;7883;52.554;13.364;2023-04-06T10:15:39;10.30;99.90
15564;DHT22;7883;52.554;13.364;2023-04-06T10:18:06;10.50;99.90
15564;DHT22;7883;52.554;13.364;2023-04-06T10:20:39;10.50;99.90
15564;DHT22;7883;52.554;13.364;2023-04-06T10:23:12;10.70;99.90
15564;DHT22;7883;52.554;13.364;2023-04-06T10:25:52;10.90;99.90
15564;DHT22;7883;52.554;13.364;2023-04-06T10:28:22;10.90;99.90
15564;DHT22;7883;52.554;13.364;2023-04-06T10:30:49;11.10;99.90
15564;DHT22;7883;52.554;13.364;2023-04-06T10:33:24;11.30;99.90
15564;DHT22;7883;52.554;13.364;2023-04-06T10:35:51;11.30;99.90
15564;DHT22;7883;52.554;13.364;2023-04-06T10:38:19;11.40;99.90
15564;DHT22;7883;52.554;13.364;2023-04-06T10:40:48;11.40;99.90
15564;DHT22;7883;52.554;13.364;2023-04-06T10:43:21;11.20;99.90
15564;DHT22;7883;52.554;13.364;2023-04-06T10:45:55;11.20;99.90
15564;DHT22;7883;52.554;13.364;2023-04-06T10:48:24;11.30;99.90
15564;DHT22;7883;52.554;13.364;2023-04-06T10:50:53;11.50;99.90
15564;DHT22;7883;52.554;13.364;2023-04-06T10:53:22;11.60;99.90
15564;DHT22;7883;52.554;13.364;2023-04-06T10:55:51;11.70;99.90
15564;DHT22;7883;52.554;13.364;2023-04-06T10:58:20;11.80;99.80
15564;DHT22;7883;52.554;13.364;2023-04-06T11:00:51;11.60;99.80
15564;DHT22;7883;52.554;13.364;2023-04-06T11:03:19;11.50;99.40
15564;DHT22;7883;52.554;13.364;2023-04-06T11:05:47;11.50;98.50
15564;DHT22;7883;52.554;13.364;2023-04-06T11:08:26;11.40;98.80
15564;DHT22;7883;52.554;13.364;2023-04-06T11:11:04;11.50;98.80
15564;DHT22;7883;52.554;13.364;2023-04-06T11:13:41;11.50;98.60
15564;DHT22;7883;52.554;13.364;2023-04-06T11:16:15;11.70;99.80
15564;DHT22;7883;52.554;13.364;2023-04-06T11:18:50;11.80;99.30
15564;DHT22;7883;52.554;13.364;2023-04-06T11:21:18;11.80;98.80
15564;DHT22;7883;52.554;13.364;2023-04-06T11:23:46;11.50;98.10
15564;DHT22;7883;52.554;13.364;2023-04-06T11:26:13;11.40;98.80
15564;DHT22;7883;52.554;13.364;2023-04-06T11:28:43;11.30;98.80
15564;DHT22;7883;52.554;13.364;2023-04-06T11:31:10;11.50;98.30
15564;DHT22;7883;52.554;13.364;2023-04-06T11:33:40;11.80;98.90
15564;DHT22;7883;52.554;13.364;2023-04-06T11:36:08;11.90;97.60
15564;DHT22;7883;52.554;13.364;2023-04-06T11:38:41;11.90;97.70
15564;DHT22;7883;52.554;13.364;2023-04-06T11:41:08;11.90;97.50
15564;DHT22;7883;52.554;13.364;2023-04-06T11:43:36;12.00;98.20
15564;DHT22;7883;52.554;13.364;2023-04-06T11:46:06;12.00;98.40
15564;DHT22;7883;52.554;13.364;2023-04-06T11:48:44;12.00;98.20
15564;DHT22;7883;52.554;13.364;2023-04-06T11:51:12;12.10;98.50
15564;DHT22;7883;52.554;13.364;2023-04-06T11:53:44;12.10;98.50
15564;DHT22;7883;52.554;13.364;2023-04-06T11:56:23;12.20;98.50
15564;DHT22;7883;52.554;13.364;2023-04-06T11:58:51;12.30;98.50
15564;DHT22;7883;52.554;13.364;2023-04-06T12:01:21;12.40;97.90
15564;DHT22;7883;52.554;13.364;2023-04-06T12:03:50;12.20;97.30
15564;DHT22;7883;52.554;13.364;2023-04-06T12:06:17;12.10;98.10
15564;DHT22;7883;52.554;13.364;2023-04-06T12:08:46;12.30;98.70
15564;DHT22;7883;52.554;13.364;2023-04-06T12:11:13;12.40;98.20
15564;DHT22;7883;52.554;13.364;2023-04-06T12:13:40;12.30;97.50
15564;DHT22;7883;52.554;13.364;2023-04-06T12:16:07;12.00;97.30
15564;DHT22;7883;52.554;13.364;2023-04-06T12:18:36;11.90;98.20
15564;DHT22;7883;52.554;13.364;2023-04-06T12:21:03;12.10;98.30
15564;DHT22;7883;52.554;13.364;2023-04-06T12:23:31;12.20;97.20
15564;DHT22;7883;52.554;13.364;2023-04-06T12:25:58;12.10;97.00
15564;DHT22;7883;52.554;13.364;2023-04-06T12:28:26;12.10;96.80
15564;DHT22;7883;52.554;13.364;2023-04-06T12:30:54;12.00;97.50
15564;DHT22;7883;52.554;13.364;2023-04-06T12:33:21;12.00;97.90
15564;DHT22;7883;52.554;13.364;2023-04-06T12:35:49;12.00;97.20
15564;DHT22;7883;52.554;13.364;2023-04-06T12:38:17;11.80;97.70
15564;DHT22;7883;52.554;13.364;2023-04-06T12:40:44;11.70;97.60
15564;DHT22;7883;52.554;13.364;2023-04-06T12:43:11;11.60;97.90
15564;DHT22;7883;52.554;13.364;2023-04-06T12:45:39;11.80;97.80
15564;DHT22;7883;52.554;13.364;2023-04-06T12:48:07;11.80;98.10
15564;DHT22;7883;52.554;13.364;2023-04-06T12:50:34;12.00;97.50
15564;DHT22;7883;52.554;13.364;2023-04-06T12:53:02;12.10;97.40
15564;DHT22;7883;52.554;13.364;2023-04-06T12:55:30;12.30;96.80
15564;DHT22;7883;52.554;13.364;2023-04-06T12:57:59;12.40;96.70
15564;DHT22;7883;52.554;13.364;2023-04-06T13:00:27;12.40;96.90
15564;DHT22;7883;52.554;13.364;2023-04-06T13:02:54;12.40;97.10
15564;DHT22;7883;52.554;13.364;2023-04-06T13:05:21;12.20;95.90
15564;DHT22;7883;52.554;13.364;2023-04-06T13:07:48;12.10;96.60
15564;DHT22;7883;52.554;13.364;2023-04-06T13:10:18;12.10;97.10
15564;DHT22;7883;52.554;13.364;2023-04-06T13:12:45;12.10;96.70
15564;DHT22;7883;52.554;13.364;2023-04-06T13:15:14;12.10;96.20
15564;DHT22;7883;52.554;13.364;2023-04-06T13:17:41;12.20;96.40
15564;DHT22;7883;52.554;13.364;2023-04-06T13:20:09;12.30;96.00
15564;DHT22;7883;52.554;13.364;2023-04-06T13:22:36;12.40;96.40
15564;DHT22;7883;52.554;13.364;2023-04-06T13:25:03;12.50;97.30
15564;DHT22;7883;52.554;13.364;2023-04-06T13:27:34;12.60;97.50
15564;DHT22;7883;52.554;13.364;2023-04-06T13:30:03;12.40;97.10
15564;DHT22;7883;52.554;13.364;2023-04-06T13:32:32;12.40;97.00
15564;DHT22;7883;52.554;13.364;2023-04-06T13:35:00;12.40;97.50
15564;DHT22;7883;52.554;13.364;2023-04-06T13:37:30;12.60;97.40
15564;DHT22;7883;52.554;13.364;2023-04-06T13:39:57;12.40;97.60
15564;DHT22;7883;52.554;13.364;2023-04-06T13:42:25;12.40;97.50
15564;DHT22;7883;52.554;13.364;2023-04-06T13:44:54;12.00;97.70
15564;DHT22;7883;52.554;13.364;2023-04-06T13:47:21;12.00;98.00
15564;DHT22;7883;52.554;13.364;2023-04-06T13:49:49;11.90;97.90
15564;DHT22;7883;52.554;13.364;2023-04-06T13:52:18;11.90;97.90
15564;DHT22;7883;52.554;13.364;2023-04-06T13:54:45;11.60;97.70
15564;DHT22;7883;52.554;13.364;2023-04-06T13:57:14;11.70;97.90
15564;DHT22;7883;52.554;13.364;2023-04-06T13:59:43;11.70;98.20
15564;DHT22;7883;52.554;13.364;2023-04-06T14:02:12;11.70;97.90
15564;DHT22;7883;52.554;13.364;2023-04-06T14:04:39;11.70;98.10
15564;DHT22;7883;52.554;13.364;2023-04-06T14:07:06;11.90;97.90
15564;DHT22;7883;52.554;13.364;2023-04-06T14:09:35;12.00;98.30
15564;DHT22;7883;52.554;13.364;2023-04-06T14:12:02;12.10;97.90
15564;DHT22;7883;52.554;13.364;2023-04-06T14:14:32;11.90;97.60
15564;DHT22;7883;52.554;13.364;2023-04-06T14:16:59;11.80;98.10
15564;DHT22;7883;52.554;13.364;2023-04-06T14:19:27;11.80;98.20
15564;DHT22;7883;52.554;13.364;2023-04-06T14:21:54;11.90;98.10
15564;DHT22;7883;52.554;13.364;2023-04-06T14:24:22;11.90;97.90
15564;DHT22;7883;52.554;13.364;2023-04-06T14:26:49;12.00;97.80
15564;DHT22;7883;52.554;13.364;2023-04-06T14:29:17;12.00;97.90
15564;DHT22;7883;52.554;13.364;2023-04-06T14:31:45;12.00;97.60
15564;DHT22;7883;52.554;13.364;2023-04-06T14:34:14;12.10;98.00
15564;DHT22;7883;52.554;13.364;2023-04-06T14:36:44;11.90;97.90
15564;DHT22;7883;52.554;13.364;2023-04-06T14:39:11;11.90;98.70
15564;DHT22;7883;52.554;13.364;2023-04-06T14:41:38;12.00;98.10
15564;DHT22;7883;52.554;13.364;2023-04-06T14:44:06;12.00;98.50
15564;DHT22;7883;52.554;13.364;2023-04-06T14:46:38;12.10;97.50
15564;DHT22;7883;52.554;13.364;2023-04-06T14:49:04;11.90;98.20
15564;DHT22;7883;52.554;13.364;2023-04-06T14:51:36;11.90;98.60
15564;DHT22;7883;52.554;13.364;2023-04-06T14:54:06;12.00;98.00
15564;DHT22;7883;52.554;13.364;2023-04-06T14:56:33;12.00;98.30
15564;DHT22;7883;52.554;13.364;2023-04-06T14:59:00;12.00;97.60
15564;DHT22;7883;52.554;13.364;2023-04-06T15:01:28;11.90;98.00
15564;DHT22;7883;52.554;13.364;2023-04-06T15:03:57;11.90;98.80
15564;DHT22;7883;52.554;13.364;2023-04-06T15:06:24;11.90;98.20
15564;DHT22;7883;52.554;13.364;2023-04-06T15:08:53;11.90;97.70
15564;DHT22;7883;52.554;13.364;2023-04-06T15:11:22;11.80;97.80
15564;DHT22;7883;52.554;13.364;2023-04-06T15:13:49;11.70;98.20
15564;DHT22;7883;52.554;13.364;2023-04-06T15:16:16;11.50;97.70
15564;DHT22;7883;52.554;13.364;2023-04-06T15:18:45;11.50;98.40
15564;DHT22;7883;52.554;13.364;2023-04-06T15:21:14;11.60;98.60
15564;DHT22;7883;52.554;13.364;2023-04-06T15:23:41;11.70;98.80
15564;DHT22;7883;52.554;13.364;2023-04-06T15:26:09;11.60;98.60
15564;DHT22;7883;52.554;13.364;2023-04-06T15:28:38;11.60;98.20
15564;DHT22;7883;52.554;13.364;2023-04-06T15:31:13;11.60;98.80
15564;DHT22;7883;52.554;13.364;2023-04-06T15:33:43;11.70;98.40
15564;DHT22;7883;52.554;13.364;2023-04-06T15:36:23;11.70;98.10
15564;DHT22;7883;52.554;13.364;2023-04-06T15:38:51;11.60;98.50
15564;DHT22;7883;52.554;13.364;2023-04-06T15:41:19;11.70;98.30
15564;DHT22;7883;52.554;13.364;2023-04-06T15:43:52;11.50;97.90
15564;DHT22;7883;52.554;13.364;2023-04-06T15:46:20;11.50;98.20